createdAt,value
2023-04-29T00:00:21.912Z,19.29
2023-04-29T00:01:21.920Z,19.29
2023-04-29T00:02:22.042Z,19.29
2023-04-29T00:03:22.248Z,19.29
2023-04-29T00:04:22.052Z,19.29
2023-04-29T00:05:22.049Z,19.29
2023-04-29T00:06:21.934Z,19.27
2023-04-29T00:07:22.660Z,19.29
2023-04-29T00:08:22.102Z,19.29
2023-04-29T00:09:21.815Z,19.29
2023-04-29T00:10:22.240Z,19.27
2023-04-29T00:11:22.094Z,19.29
2023-04-29T00:12:21.786Z,19.30
2023-04-29T00:13:21.749Z,19.29
2023-04-29T00:14:21.761Z,19.30
2023-04-29T00:15:21.751Z,19.31
2023-04-29T00:16:21.745Z,19.30
2023-04-29T00:17:21.798Z,19.29
2023-04-29T00:18:21.719Z,19.30
2023-04-29T00:19:21.753Z,19.30
2023-04-29T00:20:21.679Z,19.30
2023-04-29T00:21:21.679Z,19.30
2023-04-29T00:22:21.676Z,19.30
2023-04-29T00:23:21.670Z,19.30
2023-04-29T00:24:21.638Z,19.30
2023-04-29T00:25:21.631Z,19.30
2023-04-29T00:26:21.632Z,19.31
2023-04-29T00:27:21.624Z,19.31
2023-04-29T00:28:21.630Z,19.30
2023-04-29T00:29:21.599Z,19.30
2023-04-29T00:30:21.608Z,19.31
2023-04-29T00:31:21.595Z,19.30
2023-04-29T00:32:21.574Z,19.30
2023-04-29T00:33:21.547Z,19.29
2023-04-29T00:34:21.553Z,19.30
2023-04-29T00:35:21.525Z,19.30
2023-04-29T00:36:21.589Z,19.30
2023-04-29T00:37:21.506Z,19.30
2023-04-29T00:38:21.521Z,19.30
2023-04-29T00:39:21.515Z,19.30
2023-04-29T00:40:21.496Z,19.29
2023-04-29T00:41:21.488Z,19.30
2023-04-29T00:42:21.439Z,19.29
2023-04-29T00:43:21.447Z,19.30
2023-04-29T00:44:21.433Z,19.29
2023-04-29T00:45:21.425Z,19.29
2023-04-29T00:46:21.459Z,19.29
2023-04-29T00:47:21.379Z,19.30
2023-04-29T00:48:21.371Z,19.30
2023-04-29T00:49:21.405Z,19.30
2023-04-29T00:50:21.384Z,19.30
2023-04-29T00:51:21.390Z,19.30
2023-04-29T00:52:21.355Z,19.30
2023-04-29T00:53:21.330Z,19.30
2023-04-29T00:54:21.306Z,19.30
2023-04-29T00:55:21.298Z,19.31
2023-04-29T00:56:21.328Z,19.30
2023-04-29T00:57:21.282Z,19.30
2023-04-29T00:58:21.269Z,19.30
2023-04-29T00:59:21.262Z,19.31
2023-04-29T01:00:21.254Z,19.30
2023-04-29T01:01:21.333Z,19.29
2023-04-29T01:02:21.317Z,19.31
2023-04-29T01:03:21.452Z,19.30
2023-04-29T01:04:21.282Z,19.29
2023-04-29T01:05:21.246Z,19.30
2023-04-29T01:06:21.407Z,19.30
2023-04-29T01:07:21.214Z,19.30
2023-04-29T01:08:21.165Z,19.30
2023-04-29T01:09:21.196Z,19.30
2023-04-29T01:10:21.180Z,19.30
2023-04-29T01:11:21.171Z,19.30
2023-04-29T01:12:21.118Z,19.30
2023-04-29T01:13:21.120Z,19.30
2023-04-29T01:14:21.224Z,19.30
2023-04-29T01:15:21.097Z,19.30
2023-04-29T01:16:21.106Z,19.30
2023-04-29T01:17:21.129Z,19.30
2023-04-29T01:18:21.262Z,19.30
2023-04-29T01:19:21.153Z,19.29
2023-04-29T01:20:21.069Z,19.29
2023-04-29T01:21:21.057Z,19.30
2023-04-29T01:22:21.025Z,19.29
2023-04-29T01:23:21.488Z,19.30
2023-04-29T01:24:21.034Z,19.30
2023-04-29T01:25:20.986Z,19.29
2023-04-29T01:26:20.967Z,19.29
2023-04-29T01:27:20.997Z,19.29
2023-04-29T01:28:21.513Z,19.29
2023-04-29T01:29:20.950Z,19.29
2023-04-29T01:30:21.219Z,19.30
2023-04-29T01:31:20.978Z,19.30
2023-04-29T01:32:20.911Z,19.30
2023-04-29T01:33:20.900Z,19.31
2023-04-29T01:34:20.899Z,19.31
2023-04-29T01:35:20.865Z,19.30
2023-04-29T01:36:20.973Z,19.29
2023-04-29T01:37:20.842Z,19.29
2023-04-29T01:38:20.855Z,19.30
2023-04-29T01:39:20.825Z,19.30
2023-04-29T01:40:20.844Z,19.30
2023-04-29T01:41:20.804Z,19.30
2023-04-29T01:42:20.789Z,19.29
2023-04-29T01:43:20.785Z,19.30
2023-04-29T01:44:20.862Z,19.29
2023-04-29T01:45:21.976Z,19.29
2023-04-29T01:46:22.937Z,19.30
2023-04-29T01:47:20.773Z,19.30
2023-04-29T01:48:20.753Z,19.29
2023-04-29T01:49:20.728Z,19.30
2023-04-29T01:50:21.036Z,19.30
2023-04-29T01:51:21.216Z,19.30
2023-04-29T01:52:20.747Z,19.29
2023-04-29T01:53:20.696Z,19.30
2023-04-29T01:54:20.676Z,19.29
2023-04-29T01:55:20.717Z,19.30
2023-04-29T01:56:20.704Z,19.30
2023-04-29T01:57:20.719Z,19.30
2023-04-29T01:58:20.724Z,19.29
2023-04-29T01:59:21.012Z,19.30
2023-04-29T02:00:20.625Z,19.29
2023-04-29T02:01:20.716Z,19.29
2023-04-29T02:02:20.628Z,19.30
2023-04-29T02:03:20.682Z,19.30
2023-04-29T02:04:20.668Z,19.30
2023-04-29T02:05:20.577Z,19.29
2023-04-29T02:06:20.529Z,19.29
2023-04-29T02:07:20.530Z,19.29
2023-04-29T02:08:20.518Z,19.29
2023-04-29T02:09:20.518Z,19.29
2023-04-29T02:10:20.487Z,19.29
2023-04-29T02:11:20.476Z,19.30
2023-04-29T02:12:20.471Z,19.30
2023-04-29T02:13:20.466Z,19.30
2023-04-29T02:14:20.865Z,19.30
2023-04-29T02:15:20.860Z,19.29
2023-04-29T02:16:20.642Z,19.29
2023-04-29T02:17:20.434Z,19.29
2023-04-29T02:18:20.830Z,19.30
2023-04-29T02:19:21.279Z,19.30
2023-04-29T02:20:20.828Z,19.30
2023-04-29T02:21:20.695Z,19.30
2023-04-29T02:22:20.471Z,19.29
2023-04-29T02:23:20.714Z,19.29
2023-04-29T02:24:20.361Z,19.30
2023-04-29T02:25:21.060Z,19.29
2023-04-29T02:26:20.790Z,19.30
2023-04-29T02:27:20.732Z,19.29
2023-04-29T02:28:22.244Z,19.29
2023-04-29T02:29:20.583Z,19.29
2023-04-29T02:30:20.853Z,19.27
2023-04-29T02:31:20.755Z,19.27
2023-04-29T02:32:21.308Z,19.27
2023-04-29T02:33:20.333Z,19.29
2023-04-29T02:34:20.317Z,19.29
2023-04-29T02:35:20.554Z,19.27
2023-04-29T02:36:21.523Z,19.29
2023-04-29T02:37:20.545Z,19.27
2023-04-29T02:38:20.439Z,19.29
2023-04-29T02:39:20.365Z,19.29
2023-04-29T02:40:20.519Z,19.29
2023-04-29T02:41:20.833Z,19.27
2023-04-29T02:42:20.175Z,19.27
2023-04-29T02:43:20.129Z,19.27
2023-04-29T02:44:20.106Z,19.27
2023-04-29T02:45:20.122Z,19.26
2023-04-29T02:46:20.238Z,19.27
2023-04-29T02:47:20.149Z,19.27
2023-04-29T02:48:20.507Z,19.27
2023-04-29T02:49:20.066Z,19.27
2023-04-29T02:50:20.070Z,19.27
2023-04-29T02:51:20.056Z,19.27
2023-04-29T02:52:20.066Z,19.26
2023-04-29T02:53:20.025Z,19.26
2023-04-29T02:54:20.022Z,19.26
2023-04-29T02:55:20.020Z,19.27
2023-04-29T02:56:19.993Z,19.27
2023-04-29T02:57:20.000Z,19.26
2023-04-29T02:58:19.980Z,19.27
2023-04-29T02:59:19.983Z,19.26
2023-04-29T03:00:19.956Z,19.27
2023-04-29T03:01:19.969Z,19.26
2023-04-29T03:02:19.990Z,19.26
2023-04-29T03:03:20.036Z,19.27
2023-04-29T03:04:20.012Z,19.26
2023-04-29T03:05:19.909Z,19.26
2023-04-29T03:06:19.883Z,19.26
2023-04-29T03:07:19.881Z,19.26
2023-04-29T03:08:19.880Z,19.29
2023-04-29T03:09:19.949Z,19.27
2023-04-29T03:10:19.882Z,19.29
2023-04-29T03:11:19.855Z,19.29
2023-04-29T03:12:19.831Z,19.30
2023-04-29T03:13:19.833Z,19.30
2023-04-29T03:14:19.827Z,19.30
2023-04-29T03:15:19.783Z,19.31
2023-04-29T03:16:19.813Z,19.31
2023-04-29T03:17:19.967Z,19.33
2023-04-29T03:18:19.791Z,19.33
2023-04-29T03:19:19.745Z,19.34
2023-04-29T03:20:19.756Z,19.33
2023-04-29T03:21:19.713Z,19.33
2023-04-29T03:22:19.724Z,19.33
2023-04-29T03:23:19.708Z,19.34
2023-04-29T03:24:19.814Z,19.34
2023-04-29T03:25:19.688Z,19.34
2023-04-29T03:26:19.790Z,19.34
2023-04-29T03:27:19.664Z,19.34
2023-04-29T03:28:19.642Z,19.34
2023-04-29T03:29:19.648Z,19.34
2023-04-29T03:30:19.638Z,19.33
2023-04-29T03:31:19.663Z,19.34
2023-04-29T03:32:19.606Z,19.34
2023-04-29T03:33:19.600Z,19.33
2023-04-29T03:34:19.577Z,19.31
2023-04-29T03:35:19.583Z,19.31
2023-04-29T03:36:19.574Z,19.31
2023-04-29T03:37:19.549Z,19.30
2023-04-29T03:38:19.544Z,19.31
2023-04-29T03:39:19.545Z,19.31
2023-04-29T03:40:19.528Z,19.31
2023-04-29T03:41:19.509Z,19.30
2023-04-29T03:42:19.496Z,19.31
2023-04-29T03:43:19.487Z,19.31
2023-04-29T03:44:19.507Z,19.31
2023-04-29T03:45:19.470Z,19.31
2023-04-29T03:46:19.529Z,19.33
2023-04-29T03:47:19.461Z,19.33
2023-04-29T03:48:19.442Z,19.31
2023-04-29T03:49:19.421Z,19.33
2023-04-29T03:50:19.417Z,19.33
2023-04-29T03:51:19.396Z,19.33
2023-04-29T03:52:19.438Z,19.33
2023-04-29T03:53:19.368Z,19.33
2023-04-29T03:54:19.362Z,19.31
2023-04-29T03:55:19.356Z,19.33
2023-04-29T03:56:19.344Z,19.33
2023-04-29T03:57:19.327Z,19.33
2023-04-29T03:58:19.327Z,19.33
2023-04-29T03:59:19.308Z,19.34
2023-04-29T04:00:19.302Z,19.34
2023-04-29T04:01:19.307Z,19.34
2023-04-29T04:02:19.309Z,19.36
2023-04-29T04:03:19.579Z,19.36
2023-04-29T04:04:19.368Z,19.37
2023-04-29T04:05:19.226Z,19.37
2023-04-29T04:06:19.246Z,19.37
2023-04-29T04:07:19.229Z,19.37
2023-04-29T04:08:19.219Z,19.39
2023-04-29T04:09:19.229Z,19.39
2023-04-29T04:10:19.196Z,19.39
2023-04-29T04:11:19.176Z,19.40
2023-04-29T04:12:19.162Z,19.40
2023-04-29T04:13:19.168Z,19.40
2023-04-29T04:14:19.144Z,19.40
2023-04-29T04:15:19.117Z,19.40
2023-04-29T04:16:19.146Z,19.39
2023-04-29T04:17:19.113Z,19.41
2023-04-29T04:18:19.087Z,19.40
2023-04-29T04:19:19.141Z,19.40
2023-04-29T04:20:19.084Z,19.41
2023-04-29T04:21:19.159Z,19.41
2023-04-29T04:22:19.076Z,19.41
2023-04-29T04:23:19.075Z,19.41
2023-04-29T04:24:19.030Z,19.44
2023-04-29T04:25:19.016Z,19.44
2023-04-29T04:26:19.001Z,19.45
2023-04-29T04:27:19.005Z,19.41
2023-04-29T04:28:19.043Z,19.45
2023-04-29T04:29:18.977Z,19.44
2023-04-29T04:30:18.963Z,19.44
2023-04-29T04:31:19.030Z,19.44
2023-04-29T04:32:19.045Z,19.45
2023-04-29T04:33:18.983Z,19.44
2023-04-29T04:34:18.958Z,19.45
2023-04-29T04:35:18.925Z,19.45
2023-04-29T04:36:18.936Z,19.45
2023-04-29T04:37:18.906Z,19.45
2023-04-29T04:38:18.884Z,19.45
2023-04-29T04:39:18.894Z,19.45
2023-04-29T04:40:18.880Z,19.47
2023-04-29T04:41:18.836Z,19.45
2023-04-29T04:42:18.846Z,19.47
2023-04-29T04:43:18.842Z,19.47
2023-04-29T04:44:18.826Z,19.47
2023-04-29T04:45:18.819Z,19.48
2023-04-29T04:46:18.832Z,19.48
2023-04-29T04:47:18.810Z,19.47
2023-04-29T04:48:18.776Z,19.48
2023-04-29T04:49:18.770Z,19.47
2023-04-29T04:50:18.761Z,19.49
2023-04-29T04:51:18.739Z,19.47
2023-04-29T04:52:18.739Z,19.48
2023-04-29T04:53:18.716Z,19.48
2023-04-29T04:54:18.725Z,19.48
2023-04-29T04:55:18.722Z,19.48
2023-04-29T04:56:18.692Z,19.48
2023-04-29T04:57:18.702Z,19.48
2023-04-29T04:58:18.743Z,19.49
2023-04-29T04:59:18.670Z,19.48
2023-04-29T05:00:18.665Z,19.49
2023-04-29T05:01:18.723Z,19.51
2023-04-29T05:02:18.683Z,19.48
2023-04-29T05:03:18.777Z,19.49
2023-04-29T05:04:18.799Z,19.48
2023-04-29T05:05:18.592Z,19.49
2023-04-29T05:06:18.597Z,19.49
2023-04-29T05:07:18.587Z,19.48
2023-04-29T05:08:18.583Z,19.49
2023-04-29T05:09:18.558Z,19.49
2023-04-29T05:10:18.558Z,19.49
2023-04-29T05:11:18.574Z,19.49
2023-04-29T05:12:18.535Z,19.49
2023-04-29T05:13:18.564Z,19.49
2023-04-29T05:14:18.564Z,19.48
2023-04-29T05:15:18.517Z,19.49
2023-04-29T05:16:18.503Z,19.48
2023-04-29T05:17:18.492Z,19.49
2023-04-29T05:18:18.463Z,19.48
2023-04-29T05:19:18.488Z,19.48
2023-04-29T05:20:18.456Z,19.47
2023-04-29T05:21:18.414Z,19.48
2023-04-29T05:22:18.439Z,19.48
2023-04-29T05:23:18.410Z,19.48
2023-04-29T05:24:18.399Z,19.48
2023-04-29T05:25:18.433Z,19.47
2023-04-29T05:26:18.376Z,19.47
2023-04-29T05:27:18.347Z,19.48
2023-04-29T05:28:18.360Z,19.48
2023-04-29T05:29:18.381Z,19.48
2023-04-29T05:30:18.352Z,19.47
2023-04-29T05:31:18.358Z,19.47
2023-04-29T05:32:18.322Z,19.47
2023-04-29T05:33:18.294Z,19.47
2023-04-29T05:34:18.293Z,19.47
2023-04-29T05:35:18.280Z,19.47
2023-04-29T05:36:18.257Z,19.48
2023-04-29T05:37:18.257Z,19.48
2023-04-29T05:38:18.229Z,19.48
2023-04-29T05:39:18.218Z,19.48
2023-04-29T05:40:18.218Z,19.51
2023-04-29T05:41:18.231Z,19.49
2023-04-29T05:42:18.217Z,19.49
2023-04-29T05:43:18.174Z,19.49
2023-04-29T05:44:18.167Z,19.49
2023-04-29T05:45:18.168Z,19.49
2023-04-29T05:46:18.216Z,19.49
2023-04-29T05:47:18.156Z,19.49
2023-04-29T05:48:18.126Z,19.49
2023-04-29T05:49:18.133Z,19.49
2023-04-29T05:50:18.113Z,19.49
2023-04-29T05:51:18.104Z,19.49
2023-04-29T05:52:18.096Z,19.49
2023-04-29T05:53:18.280Z,19.49
2023-04-29T05:54:18.161Z,19.49
2023-04-29T05:55:18.057Z,19.49
2023-04-29T05:56:18.110Z,19.49
2023-04-29T05:57:18.033Z,19.49
2023-04-29T05:58:18.017Z,19.49
2023-04-29T05:59:18.026Z,19.49
2023-04-29T06:00:18.044Z,19.51
2023-04-29T06:01:17.990Z,19.48
2023-04-29T06:02:18.102Z,19.49
2023-04-29T06:03:18.059Z,19.51
2023-04-29T06:04:18.279Z,19.49
2023-04-29T06:05:18.221Z,19.48
2023-04-29T06:06:17.965Z,19.49
2023-04-29T06:07:20.109Z,19.49
2023-04-29T06:08:17.909Z,19.49
2023-04-29T06:09:27.127Z,19.49
2023-04-29T06:10:18.891Z,19.51
2023-04-29T06:11:17.868Z,19.49
2023-04-29T06:12:17.894Z,19.49
2023-04-29T06:13:17.854Z,19.49
2023-04-29T06:14:17.881Z,19.49
2023-04-29T06:15:17.834Z,19.51
2023-04-29T06:16:17.891Z,19.49
2023-04-29T06:17:17.822Z,19.51
2023-04-29T06:18:17.800Z,19.49
2023-04-29T06:19:17.806Z,19.51
2023-04-29T06:20:18.387Z,19.49
2023-04-29T06:21:17.756Z,19.51
2023-04-29T06:22:17.762Z,19.51
2023-04-29T06:23:17.760Z,19.51
2023-04-29T06:24:17.745Z,19.51
2023-04-29T06:25:17.739Z,19.52
2023-04-29T06:26:17.743Z,19.52
2023-04-29T06:27:17.699Z,19.51
2023-04-29T06:28:17.712Z,19.52
2023-04-29T06:29:17.681Z,19.52
2023-04-29T06:30:17.667Z,19.52
2023-04-29T06:31:17.904Z,19.51
2023-04-29T06:32:17.644Z,19.51
2023-04-29T06:33:17.646Z,19.51
2023-04-29T06:34:17.648Z,19.52
2023-04-29T06:35:17.613Z,19.52
2023-04-29T06:36:17.609Z,19.52
2023-04-29T06:37:17.585Z,19.52
2023-04-29T06:38:17.594Z,19.52
2023-04-29T06:39:17.576Z,19.54
2023-04-29T06:40:17.556Z,19.52
2023-04-29T06:41:17.544Z,19.52
2023-04-29T06:42:17.530Z,19.54
2023-04-29T06:43:17.517Z,19.52
2023-04-29T06:44:17.505Z,19.54
2023-04-29T06:45:17.523Z,19.51
2023-04-29T06:46:17.561Z,19.54
2023-04-29T06:47:17.492Z,19.52
2023-04-29T06:48:17.465Z,19.52
2023-04-29T06:49:17.460Z,19.52
2023-04-29T06:50:17.462Z,19.52
2023-04-29T06:51:17.448Z,19.52
2023-04-29T06:52:17.443Z,19.52
2023-04-29T06:53:17.428Z,19.52
2023-04-29T06:54:17.402Z,19.52
2023-04-29T06:55:17.397Z,19.51
2023-04-29T06:56:17.406Z,19.52
2023-04-29T06:57:17.369Z,19.52
2023-04-29T06:58:17.361Z,19.54
2023-04-29T06:59:17.353Z,19.52
2023-04-29T07:00:17.358Z,19.52
2023-04-29T07:01:17.411Z,19.52
2023-04-29T07:02:17.379Z,19.51
2023-04-29T07:03:17.392Z,19.52
2023-04-29T07:04:17.376Z,19.52
2023-04-29T07:05:17.291Z,19.52
2023-04-29T07:06:17.291Z,19.52
2023-04-29T07:07:17.318Z,19.52
2023-04-29T07:08:17.258Z,19.54
2023-04-29T07:09:17.262Z,19.52
2023-04-29T07:10:17.241Z,19.52
2023-04-29T07:11:17.272Z,19.52
2023-04-29T07:12:17.218Z,19.52
2023-04-29T07:13:17.218Z,19.52
2023-04-29T07:14:17.203Z,19.54
2023-04-29T07:15:17.189Z,19.54
2023-04-29T07:16:17.290Z,19.54
2023-04-29T07:17:17.189Z,19.54
2023-04-29T07:18:17.163Z,19.55
2023-04-29T07:19:17.130Z,19.54
2023-04-29T07:20:17.144Z,19.56
2023-04-29T07:21:17.192Z,19.56
2023-04-29T07:22:17.126Z,19.54
2023-04-29T07:23:17.167Z,19.56
2023-04-29T07:24:17.086Z,19.55
2023-04-29T07:25:17.079Z,19.55
2023-04-29T07:26:17.165Z,19.56
2023-04-29T07:27:17.062Z,19.55
2023-04-29T07:28:17.112Z,19.56
2023-04-29T07:29:17.049Z,19.56
2023-04-29T07:30:17.032Z,19.56
2023-04-29T07:31:17.028Z,19.56
2023-04-29T07:32:16.997Z,19.56
2023-04-29T07:33:16.997Z,19.58
2023-04-29T07:34:16.985Z,19.56
2023-04-29T07:35:17.145Z,19.56
2023-04-29T07:36:16.962Z,19.58
2023-04-29T07:37:16.932Z,19.56
2023-04-29T07:38:16.941Z,19.58
2023-04-29T07:39:16.936Z,19.56
2023-04-29T07:40:16.924Z,19.55
2023-04-29T07:41:16.901Z,19.56
2023-04-29T07:42:16.913Z,19.55
2023-04-29T07:43:16.882Z,19.55
2023-04-29T07:44:16.888Z,19.56
2023-04-29T07:45:16.902Z,19.55
2023-04-29T07:46:16.862Z,19.56
2023-04-29T07:47:16.836Z,19.55
2023-04-29T07:48:16.812Z,19.56
2023-04-29T07:49:16.825Z,19.55
2023-04-29T07:50:16.801Z,19.55
2023-04-29T07:51:16.773Z,19.55
2023-04-29T07:52:16.774Z,19.55
2023-04-29T07:53:16.773Z,19.54
2023-04-29T07:54:16.752Z,19.54
2023-04-29T07:55:16.755Z,19.54
2023-04-29T07:56:16.750Z,19.52
2023-04-29T07:57:16.741Z,19.54
2023-04-29T07:58:16.700Z,19.52
2023-04-29T07:59:16.720Z,19.52
2023-04-29T08:00:16.699Z,19.54
2023-04-29T08:01:16.693Z,19.52
2023-04-29T08:02:16.867Z,19.54
2023-04-29T08:03:16.914Z,19.54
2023-04-29T08:04:16.890Z,19.54
2023-04-29T08:05:17.048Z,19.54
2023-04-29T08:06:16.832Z,19.55
2023-04-29T08:07:16.606Z,19.55
2023-04-29T08:08:16.608Z,19.56
2023-04-29T08:09:16.604Z,19.56
2023-04-29T08:10:16.567Z,19.56
2023-04-29T08:11:16.648Z,19.58
2023-04-29T08:12:16.602Z,19.58
2023-04-29T08:13:16.544Z,19.59
2023-04-29T08:14:16.526Z,19.59
2023-04-29T08:15:16.545Z,19.58
2023-04-29T08:16:16.610Z,19.58
2023-04-29T08:17:16.545Z,19.59
2023-04-29T08:18:16.489Z,19.58
2023-04-29T08:19:16.486Z,19.62
2023-04-29T08:20:16.505Z,19.59
2023-04-29T08:21:16.459Z,19.59
2023-04-29T08:22:16.465Z,19.59
2023-04-29T08:23:16.484Z,19.59
2023-04-29T08:24:16.452Z,19.62
2023-04-29T08:25:16.410Z,19.62
2023-04-29T08:26:16.417Z,19.63
2023-04-29T08:27:16.449Z,19.62
2023-04-29T08:28:16.366Z,19.62
2023-04-29T08:29:16.385Z,19.62
2023-04-29T08:30:16.400Z,19.59
2023-04-29T08:31:16.385Z,19.62
2023-04-29T08:32:16.328Z,19.62
2023-04-29T08:33:16.346Z,19.63
2023-04-29T08:34:16.326Z,19.63
2023-04-29T08:35:16.319Z,19.62
2023-04-29T08:36:16.309Z,19.62
2023-04-29T08:37:18.411Z,19.59
2023-04-29T08:38:16.301Z,19.63
2023-04-29T08:39:16.317Z,19.62
2023-04-29T08:40:16.256Z,19.62
2023-04-29T08:41:16.238Z,19.63
2023-04-29T08:42:16.249Z,19.63
2023-04-29T08:43:16.226Z,19.62
2023-04-29T08:44:16.251Z,19.64
2023-04-29T08:45:16.217Z,19.63
2023-04-29T08:46:16.213Z,19.63
2023-04-29T08:47:16.171Z,19.64
2023-04-29T08:48:16.223Z,19.64
2023-04-29T08:49:16.180Z,19.64
2023-04-29T08:50:16.184Z,19.64
2023-04-29T08:51:16.210Z,19.64
2023-04-29T08:52:16.138Z,19.64
2023-04-29T08:53:16.110Z,19.64
2023-04-29T08:54:16.114Z,19.66
2023-04-29T08:55:16.120Z,19.66
2023-04-29T08:56:16.084Z,19.66
2023-04-29T08:57:16.133Z,19.66
2023-04-29T08:58:16.203Z,19.66
2023-04-29T08:59:16.062Z,19.66
2023-04-29T09:00:16.061Z,19.66
2023-04-29T09:01:16.049Z,19.66
2023-04-29T09:02:16.081Z,19.67
2023-04-29T09:03:16.176Z,19.67
2023-04-29T09:04:16.049Z,19.66
2023-04-29T09:05:16.019Z,19.66
2023-04-29T09:06:16.024Z,19.67
2023-04-29T09:07:15.943Z,19.67
2023-04-29T09:08:15.957Z,19.67
2023-04-29T09:09:15.950Z,19.67
2023-04-29T09:10:15.912Z,19.67
2023-04-29T09:11:15.922Z,19.69
2023-04-29T09:12:15.920Z,19.69
2023-04-29T09:13:15.906Z,19.70
2023-04-29T09:14:15.881Z,19.69
2023-04-29T09:15:15.943Z,19.70
2023-04-29T09:16:15.909Z,19.69
2023-04-29T09:17:15.872Z,19.69
2023-04-29T09:18:15.868Z,19.70
2023-04-29T09:19:15.846Z,19.70
2023-04-29T09:20:15.853Z,19.67
2023-04-29T09:21:15.812Z,19.70
2023-04-29T09:22:15.809Z,19.70
2023-04-29T09:23:15.790Z,19.71
2023-04-29T09:24:15.794Z,19.71
2023-04-29T09:25:15.756Z,19.71
2023-04-29T09:26:15.757Z,19.71
2023-04-29T09:27:15.861Z,19.73
2023-04-29T09:28:15.729Z,19.70
2023-04-29T09:29:15.744Z,19.71
2023-04-29T09:30:15.702Z,19.71
2023-04-29T09:31:15.770Z,19.70
2023-04-29T09:32:15.691Z,19.70
2023-04-29T09:33:15.706Z,19.70
2023-04-29T09:34:15.678Z,19.69
2023-04-29T09:35:15.645Z,19.70
2023-04-29T09:36:15.651Z,19.69
2023-04-29T09:37:15.654Z,19.70
2023-04-29T09:38:15.633Z,19.67
2023-04-29T09:39:15.655Z,19.69
2023-04-29T09:40:15.631Z,19.67
2023-04-29T09:41:15.582Z,19.69
2023-04-29T09:42:15.577Z,19.67
2023-04-29T09:43:15.558Z,19.66
2023-04-29T09:44:15.554Z,19.66
2023-04-29T09:45:15.567Z,19.66
2023-04-29T09:46:15.551Z,19.64
2023-04-29T09:47:15.559Z,19.66
2023-04-29T09:48:15.503Z,19.63
2023-04-29T09:49:15.493Z,19.64
2023-04-29T09:50:15.547Z,19.66
2023-04-29T09:51:16.186Z,19.63
2023-04-29T09:52:15.485Z,19.64
2023-04-29T09:53:15.464Z,19.63
2023-04-29T09:54:15.457Z,19.62
2023-04-29T09:55:15.455Z,19.64
2023-04-29T09:56:15.429Z,19.62
2023-04-29T09:57:15.415Z,19.63
2023-04-29T09:58:15.383Z,19.63
2023-04-29T09:59:15.387Z,19.63
2023-04-29T10:00:15.404Z,19.62
2023-04-29T10:01:15.434Z,19.62
2023-04-29T10:02:15.451Z,19.62
2023-04-29T10:03:15.455Z,19.62
2023-04-29T10:04:15.418Z,19.59
2023-04-29T10:05:15.497Z,19.62
2023-04-29T10:06:15.350Z,19.59
2023-04-29T10:07:15.307Z,19.59
2023-04-29T10:08:15.317Z,19.59
2023-04-29T10:09:15.289Z,19.59
2023-04-29T10:10:15.268Z,19.59
2023-04-29T10:11:15.293Z,19.59
2023-04-29T10:12:15.264Z,19.58
2023-04-29T10:13:15.249Z,19.58
2023-04-29T10:14:15.251Z,19.59
2023-04-29T10:15:15.238Z,19.58
2023-04-29T10:16:15.264Z,19.58
2023-04-29T10:17:15.294Z,19.56
2023-04-29T10:18:15.216Z,19.56
2023-04-29T10:19:15.210Z,19.55
2023-04-29T10:20:15.157Z,19.56
2023-04-29T10:21:15.299Z,19.55
2023-04-29T10:22:15.126Z,19.55
2023-04-29T10:23:15.133Z,19.56
2023-04-29T10:24:15.118Z,19.55
2023-04-29T10:25:15.108Z,19.55
2023-04-29T10:26:15.109Z,19.55
2023-04-29T10:27:15.084Z,19.55
2023-04-29T10:28:15.096Z,19.56
2023-04-29T10:29:15.059Z,19.56
2023-04-29T10:30:15.161Z,19.55
2023-04-29T10:31:15.066Z,19.55
2023-04-29T10:32:15.042Z,19.54
2023-04-29T10:33:15.054Z,19.54
2023-04-29T10:34:15.001Z,19.55
2023-04-29T10:35:14.992Z,19.54
2023-04-29T10:36:14.992Z,19.54
2023-04-29T10:37:14.981Z,19.55
2023-04-29T10:38:15.917Z,19.54
2023-04-29T10:39:14.949Z,19.55
2023-04-29T10:40:15.022Z,19.54
2023-04-29T10:41:14.943Z,19.55
2023-04-29T10:42:14.910Z,19.54
2023-04-29T10:43:14.905Z,19.52
2023-04-29T10:44:14.948Z,19.55
2023-04-29T10:45:14.887Z,19.55
2023-04-29T10:46:14.897Z,19.54
2023-04-29T10:47:14.870Z,19.54
2023-04-29T10:48:14.847Z,19.54
2023-04-29T10:49:14.837Z,19.54
2023-04-29T10:50:14.992Z,19.54
2023-04-29T10:51:14.831Z,19.54
2023-04-29T10:52:15.437Z,19.54
2023-04-29T10:53:14.810Z,19.54
2023-04-29T10:54:14.799Z,19.54
2023-04-29T10:55:14.816Z,19.55
2023-04-29T10:56:14.937Z,19.54
2023-04-29T10:57:14.750Z,19.54
2023-04-29T10:58:14.741Z,19.54
2023-04-29T10:59:14.751Z,19.54
2023-04-29T11:00:14.851Z,19.54
2023-04-29T11:01:14.810Z,19.54
2023-04-29T11:02:14.704Z,19.52
2023-04-29T11:03:14.774Z,19.52
2023-04-29T11:04:14.708Z,19.52
2023-04-29T11:05:14.756Z,19.52
2023-04-29T11:06:14.662Z,19.51
2023-04-29T11:07:14.686Z,19.52
2023-04-29T11:08:14.665Z,19.51
2023-04-29T11:09:14.757Z,19.49
2023-04-29T11:10:14.697Z,19.49
2023-04-29T11:11:14.617Z,19.49
2023-04-29T11:12:14.588Z,19.48
2023-04-29T11:13:14.632Z,19.49
2023-04-29T11:14:14.586Z,19.48
2023-04-29T11:15:14.582Z,19.47
2023-04-29T11:16:14.592Z,19.48
2023-04-29T11:17:14.542Z,19.47
2023-04-29T11:18:14.575Z,19.47
2023-04-29T11:19:14.533Z,19.47
2023-04-29T11:20:14.654Z,19.47
2023-04-29T11:21:14.535Z,19.48
2023-04-29T11:22:14.496Z,19.47
2023-04-29T11:23:14.480Z,19.47
2023-04-29T11:24:14.487Z,19.47
2023-04-29T11:25:14.479Z,19.47
2023-04-29T11:26:14.456Z,19.47
2023-04-29T11:27:14.443Z,19.47
2023-04-29T11:28:14.451Z,19.48
2023-04-29T11:29:14.433Z,19.47
2023-04-29T11:30:14.407Z,19.48
2023-04-29T11:31:14.469Z,19.49
2023-04-29T11:32:14.420Z,19.49
2023-04-29T11:33:14.417Z,19.51
2023-04-29T11:34:14.351Z,19.52
2023-04-29T11:35:14.354Z,19.52
2023-04-29T11:36:14.350Z,19.52
2023-04-29T11:37:14.328Z,19.52
2023-04-29T11:38:14.301Z,19.54
2023-04-29T11:39:14.305Z,19.54
2023-04-29T11:40:14.300Z,19.55
2023-04-29T11:41:14.292Z,19.55
2023-04-29T11:42:14.280Z,19.55
2023-04-29T11:43:14.321Z,19.56
2023-04-29T11:44:14.263Z,19.56
2023-04-29T11:45:14.261Z,19.59
2023-04-29T11:46:14.248Z,19.59
2023-04-29T11:47:14.215Z,19.62
2023-04-29T11:48:14.206Z,19.62
2023-04-29T11:49:14.229Z,19.59
2023-04-29T11:50:14.193Z,19.63
2023-04-29T11:51:14.160Z,19.63
2023-04-29T11:52:14.165Z,19.63
2023-04-29T11:53:14.177Z,19.63
2023-04-29T11:54:14.978Z,19.63
2023-04-29T11:55:14.195Z,19.63
2023-04-29T11:56:14.141Z,19.63
2023-04-29T11:57:14.100Z,19.62
2023-04-29T11:58:14.111Z,19.63
2023-04-29T11:59:14.081Z,19.64
2023-04-29T12:00:14.366Z,19.63
2023-04-29T12:01:14.085Z,19.63
2023-04-29T12:02:14.119Z,19.63
2023-04-29T12:03:14.207Z,19.63
2023-04-29T12:04:14.201Z,19.62
2023-04-29T12:05:14.256Z,19.62
2023-04-29T12:06:14.022Z,19.62
2023-04-29T12:07:14.002Z,19.59
2023-04-29T12:08:13.991Z,19.63
2023-04-29T12:09:13.969Z,19.63
2023-04-29T12:10:14.074Z,19.63
2023-04-29T12:11:13.982Z,19.64
2023-04-29T12:12:13.942Z,19.64
2023-04-29T12:13:13.926Z,19.64
2023-04-29T12:14:13.930Z,19.64
2023-04-29T12:15:13.920Z,19.66
2023-04-29T12:16:13.917Z,19.66
2023-04-29T12:17:13.915Z,19.67
2023-04-29T12:18:13.882Z,19.66
2023-04-29T12:19:13.878Z,19.66
2023-04-29T12:20:13.871Z,19.67
2023-04-29T12:21:13.925Z,19.67
2023-04-29T12:22:13.857Z,19.67
2023-04-29T12:23:13.839Z,19.67
2023-04-29T12:24:13.835Z,19.67
2023-04-29T12:25:13.808Z,19.67
2023-04-29T12:26:13.792Z,19.67
2023-04-29T12:27:13.833Z,19.69
2023-04-29T12:28:13.797Z,19.67
2023-04-29T12:29:13.753Z,19.67
2023-04-29T12:30:13.760Z,19.66
2023-04-29T12:31:13.756Z,19.67
2023-04-29T12:32:13.743Z,19.67
2023-04-29T12:33:13.818Z,19.67
2023-04-29T12:34:13.702Z,19.66
2023-04-29T12:35:13.697Z,19.67
2023-04-29T12:36:13.697Z,19.66
2023-04-29T12:37:13.660Z,19.67
2023-04-29T12:38:13.667Z,19.66
2023-04-29T12:39:13.670Z,19.66
2023-04-29T12:40:13.641Z,19.66
2023-04-29T12:41:13.681Z,19.64
2023-04-29T12:42:13.624Z,19.64
2023-04-29T12:43:13.614Z,19.66
2023-04-29T12:44:13.669Z,19.64
2023-04-29T12:45:13.576Z,19.64
2023-04-29T12:46:13.615Z,19.63
2023-04-29T12:47:13.843Z,19.66
2023-04-29T12:48:22.141Z,19.64
2023-04-29T12:49:14.530Z,19.66
2023-04-29T12:50:13.545Z,19.64
2023-04-29T12:51:13.510Z,19.64
2023-04-29T12:52:13.581Z,19.64